»·PEaware :: N5205X KTOA-KVNY

N5205X :: KTOA-KVNY

FLIGHT INFORMATION

Flight Status: Arrived
Operator: Privately registered:
United States
More flights under this callsign
Pilot: Martin B. (29991)
Aircraft: CIRRUS SR-22
(SR22)
More flights by this aircraft type
Origin: KTOA Zamperini
United States
Destination: KVNY Van Nuys
United States
More flights between these airports :: More routes between these airports
Route: LAX170 LIMBO V64 SMO125 SMO SMO317 CANOG
File this flight plan on PilotEdge
Remarks: TEC SCTP2
Altitude:
(Current/Filed)
4,000ft
Speed:
(Current/Filed)
160kts
Departed: 14-Feb-21 11:03 AM
Arrived: 14-Feb-21 12:02 PM
Distance/Time
Traveled:
25nm/0:58
Distance/Time
To Go:
Arrived

Flight Plot

Page will automatically refresh every two minutes.

Flight plan parsing failed; only flown route is shown


Map Options




Map Legend


Flown Route
Filed Route
Departure Airport
Arrival Airport
Navaid (VOR, NDB)
Fix

Horizontal Profiles

Position Reports

Time Latitude Longitude Heading Altitude Ground
Speed
14-Feb-21 10:45 33.803350 -118.344041 78 111ft 0kts
14-Feb-21 10:46 33.803350 -118.344041 78 111ft 0kts
14-Feb-21 10:47 33.803350 -118.344041 78 111ft 0kts
14-Feb-21 10:48 33.803347 -118.344051 39 111ft 0kts
14-Feb-21 10:49 33.803347 -118.344051 39 111ft 0kts
14-Feb-21 10:50 33.803347 -118.344051 39 111ft 0kts
14-Feb-21 10:51 33.803347 -118.344051 39 111ft 0kts
14-Feb-21 10:52 33.803347 -118.344051 39 111ft 0kts
14-Feb-21 10:53 33.803347 -118.344051 39 111ft 0kts
14-Feb-21 10:54 33.803347 -118.344051 39 111ft 0kts
14-Feb-21 10:55 33.803347 -118.344051 39 111ft 0kts
14-Feb-21 10:56 33.803347 -118.344051 39 111ft 0kts
14-Feb-21 10:57 33.802976 -118.341978 111 107ft 11kts
14-Feb-21 10:58 33.799243 -118.336281 131 107ft 18kts
14-Feb-21 10:59 33.799084 -118.333314 37 101ft 0kts
14-Feb-21 11:00 33.799084 -118.333314 37 101ft 0kts
14-Feb-21 11:01 33.799084 -118.333314 37 101ft 0kts
14-Feb-21 11:02 33.800465 -118.334293 311 100ft 51kts
14-Feb-21 11:03 33.819976 -118.365010 307 885ft 138kts
14-Feb-21 11:04 33.843269 -118.403427 306 1893ft 142kts
14-Feb-21 11:05 33.860796 -118.444184 251 2989ft 142kts
14-Feb-21 11:06 33.822359 -118.452784 182 4009ft 163kts
14-Feb-21 11:07 33.771358 -118.449905 168 3983ft 194kts
14-Feb-21 11:08 33.762898 -118.391803 80 3989ft 193kts
14-Feb-21 11:09 33.767105 -118.326704 81 3988ft 195kts
14-Feb-21 11:10 33.770996 -118.262095 80 3991ft 192kts
14-Feb-21 11:11 33.776602 -118.199450 51 3980ft 178kts
14-Feb-21 11:12 33.804770 -118.221707 287 3999ft 168kts
14-Feb-21 11:13 33.827359 -118.268493 313 3991ft 161kts
14-Feb-21 11:14 33.859664 -118.305308 319 3993ft 160kts
14-Feb-21 11:15 33.893939 -118.339776 321 3994ft 161kts
14-Feb-21 11:16 33.928681 -118.374603 320 3995ft 164kts
14-Feb-21 11:17 33.964170 -118.410405 320 3990ft 167kts
14-Feb-21 11:18 34.000183 -118.446629 321 3990ft 168kts
14-Feb-21 11:19 34.039971 -118.475880 332 3997ft 166kts
14-Feb-21 11:20 34.079006 -118.504962 312 4003ft 167kts
14-Feb-21 11:21 34.107976 -118.548410 312 4215ft 158kts
14-Feb-21 11:22 34.133530 -118.588416 311 4981ft 146kts
14-Feb-21 11:23 34.166591 -118.616372 353 5017ft 157kts
14-Feb-21 11:24 34.210132 -118.622503 353 5009ft 157kts
14-Feb-21 11:25 34.253442 -118.628828 353 5009ft 156kts
14-Feb-21 11:26 34.297096 -118.634449 352 5016ft 155kts
14-Feb-21 11:27 34.340820 -118.638911 352 5024ft 154kts
14-Feb-21 11:28 34.384758 -118.642375 352 5027ft 154kts
14-Feb-21 11:29 34.428776 -118.644819 353 5030ft 156kts
14-Feb-21 11:30 34.472869 -118.645245 20 5010ft 164kts
14-Feb-21 11:31 34.483044 -118.587151 80 5040ft 188kts
14-Feb-21 11:32 34.481774 -118.523016 124 5009ft 189kts
14-Feb-21 11:33 34.450339 -118.498422 216 5023ft 98kts
14-Feb-21 11:34 34.420707 -118.507776 198 4935ft 119kts
14-Feb-21 11:35 34.387352 -118.506983 188 4765ft 131kts
14-Feb-21 11:36 34.345364 -118.503132 184 3892ft 167kts
14-Feb-21 11:37 34.296407 -118.498483 179 2721ft 182kts
14-Feb-21 11:38 34.245868 -118.493796 178 1548ft 182kts
14-Feb-21 11:39 34.206021 -118.488355 178 1613ft 155kts
14-Feb-21 11:40 34.161539 -118.476226 194 1706ft 192kts
14-Feb-21 11:42 34.117591 -118.479220 169 3261ft 158kts
14-Feb-21 11:43 34.076257 -118.461251 157 3779ft 176kts
14-Feb-21 11:44 34.031360 -118.438297 167 4287ft 178kts
14-Feb-21 11:45 33.996113 -118.456860 287 4592ft 164kts
14-Feb-21 11:46 34.016137 -118.506226 284 4599ft 171kts
14-Feb-21 11:47 34.024043 -118.564123 280 4599ft 174kts
14-Feb-21 11:48 34.031517 -118.622648 282 4607ft 173kts
14-Feb-21 11:49 34.038775 -118.679603 282 4616ft 170kts
14-Feb-21 11:50 34.046021 -118.736637 282 4634ft 166kts
14-Feb-21 11:51 34.065909 -118.784974 296 4643ft 159kts
14-Feb-21 11:52 34.104781 -118.800735 353 4644ft 158kts
14-Feb-21 11:53 34.149825 -118.801386 353 4637ft 156kts
14-Feb-21 11:54 34.187034 -118.781507 61 4641ft 174kts
14-Feb-21 11:55 34.202960 -118.724037 90 3927ft 184kts
14-Feb-21 11:55 34.201411 -118.673814 86 3417ft 169kts
14-Feb-21 11:57 34.200658 -118.612619 82 3416ft 148kts
14-Feb-21 11:58 34.199947 -118.560956 90 2975ft 159kts
14-Feb-21 11:58 34.176243 -118.529764 122 1943ft 132kts
14-Feb-21 12:00 34.178640 -118.492434 29 1727ft 81kts
14-Feb-21 12:01 34.199066 -118.489322 351 810ft 59kts
14-Feb-21 12:01 34.202535 -118.490416 290 804ft 0kts
14-Feb-21 12:02 34.202459 -118.491304 163 804ft 0kts
14-Feb-21 12:03 34.202458 -118.491304 163 804ft 0kts

Navigation Log

Ident Type
Flight plan parsing failed, navigation log unavailable